This is the latest recevied weather packets stored in our database for station/object K7KAZ. If no packets are shown the sender has not sent any weather packets the latest 10 day(s).
| Time | Temp. | Humidity | Pressure | Rain* | Wind** | Luminosity | Snow |
|---|---|---|---|---|---|---|---|
| 1777850814 | 33.33° C | 17% | 1009.2 hPa | 0 mm | - | 349 W/m² | - |
| 1777850511 | 33.89° C | 17% | 1009.3 hPa | 0 mm | - | 402 W/m² | - |
| 1777850204 | 34.44° C | 17% | 1009.3 hPa | 0 mm | - | 389 W/m² | - |
| 1777849900 | 33.89° C | 17% | 1009.1 hPa | 0 mm | - | 434 W/m² | - |
| 1777849597 | 33.33° C | 17% | 1009.2 hPa | 0 mm | - | 416 W/m² | - |
| 1777849294 | 33.33° C | 17% | 1009.5 hPa | 0 mm | - | 489 W/m² | - |
| 1777848992 | 33.89° C | 17% | 1009.4 hPa | 0 mm | - | 453 W/m² | - |
| 1777848691 | 33.89° C | 17% | 1009.8 hPa | 0 mm | - | 527 W/m² | - |
| 1777848389 | 33.33° C | 18% | 1009.8 hPa | 0 mm | - | 464 W/m² | - |
| 1777848087 | 33.89° C | 17% | 1010 hPa | 0 mm | - | 548 W/m² | - |
| 1777847785 | 33.89° C | 17% | 1010.2 hPa | 0 mm | - | 581 W/m² | - |
| 1777847480 | 33.33° C | 17% | 1010.1 hPa | 0 mm | - | 492 W/m² | - |
| 1777847178 | 33.33° C | 18% | 1010.1 hPa | 0 mm | - | 568 W/m² | - |
| 1777846875 | 33.33° C | 18% | 1010.2 hPa | 0 mm | - | 551 W/m² | - |
| 1777846574 | 33.33° C | 17% | 1010.6 hPa | 0 mm | - | 555 W/m² | - |
| 1777846271 | 33.33° C | 18% | 1010.5 hPa | 0 mm | - | 577 W/m² | - |
| 1777845967 | 33.33° C | 18% | 1010.5 hPa | 0 mm | - | 555 W/m² | - |
| 1777845664 | 33.33° C | 18% | 1010.5 hPa | 0 mm | - | 525 W/m² | - |
| 1777845361 | 33.33° C | 18% | 1011 hPa | 0 mm | - | 632 W/m² | - |
| 1777845058 | 32.78° C | 19% | 1010.9 hPa | 0 mm | - | 608 W/m² | - |
| 1777844756 | 32.78° C | 19% | 1010.9 hPa | 0 mm | - | 541 W/m² | - |
| 1777844452 | 33.89° C | 18% | 1010.9 hPa | 0 mm | - | 617 W/m² | - |
| 1777844151 | 33.33° C | 18% | 1011.2 hPa | 0 mm | - | 691 W/m² | - |
| 1777843847 | 32.78° C | 19% | 1011.1 hPa | 0 mm | - | 610 W/m² | - |
| 1777843545 | 32.78° C | 20% | 1011.5 hPa | 0 mm | - | 607 W/m² | - |
* Rain latest hour (hover to see other rain measurements)
** Current wind speed in m/s (hover to see current wind gust speed)